sensor_id;sensor_type;location;lat;lon;timestamp;pressure;altitude;pressure_sealevel;temperature
69590;BMP180;56792;50.644;17.984;2024-03-02T00:00:27;98932.20;;;9.10
69590;BMP180;56792;50.644;17.984;2024-03-02T00:02:59;98925.40;;;9.10
69590;BMP180;56792;50.644;17.984;2024-03-02T00:05:30;98928.00;;;9.10
69590;BMP180;56792;50.644;17.984;2024-03-02T00:08:02;98933.80;;;9.10
69590;BMP180;56792;50.644;17.984;2024-03-02T00:10:39;98930.20;;;9.10
69590;BMP180;56792;50.644;17.984;2024-03-02T00:13:11;98933.60;;;9.10
69590;BMP180;56792;50.644;17.984;2024-03-02T00:15:47;98930.80;;;9.10
69590;BMP180;56792;50.644;17.984;2024-03-02T00:18:24;98936.80;;;9.08
69590;BMP180;56792;50.644;17.984;2024-03-02T00:20:58;98937.40;;;9.00
69590;BMP180;56792;50.644;17.984;2024-03-02T00:23:33;98936.00;;;9.00
69590;BMP180;56792;50.644;17.984;2024-03-02T00:26:05;98931.40;;;9.00
69590;BMP180;56792;50.644;17.984;2024-03-02T00:28:40;98929.40;;;9.00
69590;BMP180;56792;50.644;17.984;2024-03-02T00:31:15;98927.40;;;9.00
69590;BMP180;56792;50.644;17.984;2024-03-02T00:33:48;98933.20;;;9.00
69590;BMP180;56792;50.644;17.984;2024-03-02T00:36:26;98933.60;;;9.00
69590;BMP180;56792;50.644;17.984;2024-03-02T00:38:58;98932.40;;;9.00
69590;BMP180;56792;50.644;17.984;2024-03-02T00:41:31;98931.00;;;8.92
69590;BMP180;56792;50.644;17.984;2024-03-02T00:44:04;98932.60;;;8.90
69590;BMP180;56792;50.644;17.984;2024-03-02T00:46:37;98926.60;;;8.90
69590;BMP180;56792;50.644;17.984;2024-03-02T00:49:20;98927.40;;;8.90
69590;BMP180;56792;50.644;17.984;2024-03-02T00:51:54;98931.00;;;8.84
69590;BMP180;56792;50.644;17.984;2024-03-02T00:54:27;98933.40;;;8.84
69590;BMP180;56792;50.644;17.984;2024-03-02T00:56:59;98933.20;;;8.84
69590;BMP180;56792;50.644;17.984;2024-03-02T00:59:30;98931.80;;;8.90
69590;BMP180;56792;50.644;17.984;2024-03-02T01:02:02;98928.20;;;8.90
69590;BMP180;56792;50.644;17.984;2024-03-02T01:04:34;98924.80;;;8.80
69590;BMP180;56792;50.644;17.984;2024-03-02T01:07:06;98921.00;;;8.80
69590;BMP180;56792;50.644;17.984;2024-03-02T01:09:37;98919.60;;;8.80
69590;BMP180;56792;50.644;17.984;2024-03-02T01:12:10;98923.00;;;8.82
69590;BMP180;56792;50.644;17.984;2024-03-02T01:14:41;98924.40;;;8.86
69590;BMP180;56792;50.644;17.984;2024-03-02T01:17:13;98924.20;;;8.90
69590;BMP180;56792;50.644;17.984;2024-03-02T01:19:46;98917.20;;;8.90
69590;BMP180;56792;50.644;17.984;2024-03-02T01:22:18;98917.20;;;8.90
69590;BMP180;56792;50.644;17.984;2024-03-02T01:24:55;98918.20;;;8.90
69590;BMP180;56792;50.644;17.984;2024-03-02T01:27:26;98914.40;;;8.88
69590;BMP180;56792;50.644;17.984;2024-03-02T01:29:58;98913.80;;;8.88
69590;BMP180;56792;50.644;17.984;2024-03-02T01:32:29;98908.80;;;8.88
69590;BMP180;56792;50.644;17.984;2024-03-02T01:35:04;98914.60;;;8.90
69590;BMP180;56792;50.644;17.984;2024-03-02T01:37:37;98913.40;;;8.90
69590;BMP180;56792;50.644;17.984;2024-03-02T01:40:12;98915.40;;;8.88
69590;BMP180;56792;50.644;17.984;2024-03-02T01:42:44;98915.60;;;8.88
69590;BMP180;56792;50.644;17.984;2024-03-02T01:45:16;98916.40;;;8.90
69590;BMP180;56792;50.644;17.984;2024-03-02T01:47:48;98907.00;;;8.90
69590;BMP180;56792;50.644;17.984;2024-03-02T01:50:28;98914.60;;;8.84
69590;BMP180;56792;50.644;17.984;2024-03-02T01:53:01;98909.00;;;8.80
69590;BMP180;56792;50.644;17.984;2024-03-02T01:55:33;98905.00;;;8.80
69590;BMP180;56792;50.644;17.984;2024-03-02T01:58:05;98907.20;;;8.80
69590;BMP180;56792;50.644;17.984;2024-03-02T02:00:37;98909.00;;;8.80
69590;BMP180;56792;50.644;17.984;2024-03-02T02:03:08;98910.80;;;8.80
69590;BMP180;56792;50.644;17.984;2024-03-02T02:05:40;98912.20;;;8.80
69590;BMP180;56792;50.644;17.984;2024-03-02T02:08:13;98915.40;;;8.80
69590;BMP180;56792;50.644;17.984;2024-03-02T02:10:45;98916.60;;;8.80
69590;BMP180;56792;50.644;17.984;2024-03-02T02:13:16;98909.80;;;8.80
69590;BMP180;56792;50.644;17.984;2024-03-02T02:15:48;98908.00;;;8.80
69590;BMP180;56792;50.644;17.984;2024-03-02T02:18:20;98909.20;;;8.80
69590;BMP180;56792;50.644;17.984;2024-03-02T02:20:52;98914.40;;;8.80
69590;BMP180;56792;50.644;17.984;2024-03-02T02:23:23;98916.40;;;8.80
69590;BMP180;56792;50.644;17.984;2024-03-02T02:25:55;98918.60;;;8.80
69590;BMP180;56792;50.644;17.984;2024-03-02T02:28:26;98917.80;;;8.80
69590;BMP180;56792;50.644;17.984;2024-03-02T02:30:59;98913.80;;;8.80
69590;BMP180;56792;50.644;17.984;2024-03-02T02:33:31;98912.60;;;8.80
69590;BMP180;56792;50.644;17.984;2024-03-02T02:36:02;98915.80;;;8.80
69590;BMP180;56792;50.644;17.984;2024-03-02T02:38:38;98919.60;;;8.80
69590;BMP180;56792;50.644;17.984;2024-03-02T02:41:10;98918.40;;;8.80
69590;BMP180;56792;50.644;17.984;2024-03-02T02:43:42;98916.00;;;8.80
69590;BMP180;56792;50.644;17.984;2024-03-02T02:46:13;98912.60;;;8.80
69590;BMP180;56792;50.644;17.984;2024-03-02T02:48:45;98906.80;;;8.80
69590;BMP180;56792;50.644;17.984;2024-03-02T02:51:17;98909.00;;;8.80
69590;BMP180;56792;50.644;17.984;2024-03-02T02:53:49;98907.80;;;8.80
69590;BMP180;56792;50.644;17.984;2024-03-02T02:56:21;98905.00;;;8.74
69590;BMP180;56792;50.644;17.984;2024-03-02T02:58:52;98911.00;;;8.70
69590;BMP180;56792;50.644;17.984;2024-03-02T03:01:24;98906.80;;;8.70
69590;BMP180;56792;50.644;17.984;2024-03-02T03:03:55;98909.20;;;8.70
69590;BMP180;56792;50.644;17.984;2024-03-02T03:06:27;98912.00;;;8.60
69590;BMP180;56792;50.644;17.984;2024-03-02T03:08:58;98911.60;;;8.60
69590;BMP180;56792;50.644;17.984;2024-03-02T03:11:30;98908.60;;;8.60
69590;BMP180;56792;50.644;17.984;2024-03-02T03:14:02;98908.60;;;8.56
69590;BMP180;56792;50.644;17.984;2024-03-02T03:16:35;98904.80;;;8.50
69590;BMP180;56792;50.644;17.984;2024-03-02T03:19:06;98906.20;;;8.50
69590;BMP180;56792;50.644;17.984;2024-03-02T03:21:38;98908.40;;;8.50
69590;BMP180;56792;50.644;17.984;2024-03-02T03:24:10;98904.40;;;8.48
69590;BMP180;56792;50.644;17.984;2024-03-02T03:26:41;98904.40;;;8.44
69590;BMP180;56792;50.644;17.984;2024-03-02T03:29:13;98900.00;;;8.40
69590;BMP180;56792;50.644;17.984;2024-03-02T03:31:44;98902.40;;;8.40
69590;BMP180;56792;50.644;17.984;2024-03-02T03:34:16;98899.60;;;8.40
69590;BMP180;56792;50.644;17.984;2024-03-02T03:36:47;98900.80;;;8.32
69590;BMP180;56792;50.644;17.984;2024-03-02T03:39:19;98903.20;;;8.30
69590;BMP180;56792;50.644;17.984;2024-03-02T03:41:50;98898.60;;;8.30
69590;BMP180;56792;50.644;17.984;2024-03-02T03:44:22;98892.80;;;8.30
69590;BMP180;56792;50.644;17.984;2024-03-02T03:46:53;98892.40;;;8.20
69590;BMP180;56792;50.644;17.984;2024-03-02T03:49:25;98888.80;;;8.20
69590;BMP180;56792;50.644;17.984;2024-03-02T03:51:56;98886.40;;;8.20
69590;BMP180;56792;50.644;17.984;2024-03-02T03:54:28;98888.60;;;8.10
69590;BMP180;56792;50.644;17.984;2024-03-02T03:56:59;98897.80;;;8.10
69590;BMP180;56792;50.644;17.984;2024-03-02T03:59:31;98900.80;;;8.06
69590;BMP180;56792;50.644;17.984;2024-03-02T04:02:03;98903.60;;;8.00
69590;BMP180;56792;50.644;17.984;2024-03-02T04:04:35;98908.60;;;8.00
69590;BMP180;56792;50.644;17.984;2024-03-02T04:07:06;98901.80;;;8.00
69590;BMP180;56792;50.644;17.984;2024-03-02T04:09:38;98901.80;;;7.92
69590;BMP180;56792;50.644;17.984;2024-03-02T04:12:10;98901.60;;;7.90
69590;BMP180;56792;50.644;17.984;2024-03-02T04:14:43;98904.00;;;7.90
69590;BMP180;56792;50.644;17.984;2024-03-02T04:17:14;98904.00;;;7.84
69590;BMP180;56792;50.644;17.984;2024-03-02T04:19:46;98914.60;;;7.80
69590;BMP180;56792;50.644;17.984;2024-03-02T04:22:18;98916.40;;;7.80
69590;BMP180;56792;50.644;17.984;2024-03-02T04:24:49;98918.20;;;7.80
69590;BMP180;56792;50.644;17.984;2024-03-02T04:27:21;98922.20;;;7.80
69590;BMP180;56792;50.644;17.984;2024-03-02T04:29:52;98920.20;;;7.80
69590;BMP180;56792;50.644;17.984;2024-03-02T04:32:24;98921.80;;;7.80
69590;BMP180;56792;50.644;17.984;2024-03-02T04:34:55;98921.20;;;7.80
69590;BMP180;56792;50.644;17.984;2024-03-02T04:37:27;98923.00;;;7.80
69590;BMP180;56792;50.644;17.984;2024-03-02T04:39:58;98925.60;;;7.80
69590;BMP180;56792;50.644;17.984;2024-03-02T04:42:30;98924.60;;;7.80
69590;BMP180;56792;50.644;17.984;2024-03-02T04:45:01;98927.80;;;7.80
69590;BMP180;56792;50.644;17.984;2024-03-02T04:47:33;98928.60;;;7.80
69590;BMP180;56792;50.644;17.984;2024-03-02T04:50:06;98935.60;;;7.80
69590;BMP180;56792;50.644;17.984;2024-03-02T04:52:38;98942.60;;;7.80
69590;BMP180;56792;50.644;17.984;2024-03-02T04:55:10;98940.80;;;7.80
69590;BMP180;56792;50.644;17.984;2024-03-02T04:57:55;98937.40;;;7.72
69590;BMP180;56792;50.644;17.984;2024-03-02T05:00:26;98937.00;;;7.70
69590;BMP180;56792;50.644;17.984;2024-03-02T05:02:58;98938.00;;;7.70
69590;BMP180;56792;50.644;17.984;2024-03-02T05:05:29;98934.00;;;7.70
69590;BMP180;56792;50.644;17.984;2024-03-02T05:08:00;98931.60;;;7.60
69590;BMP180;56792;50.644;17.984;2024-03-02T05:10:33;98934.40;;;7.60
69590;BMP180;56792;50.644;17.984;2024-03-02T05:13:06;98940.20;;;7.50
69590;BMP180;56792;50.644;17.984;2024-03-02T05:15:38;98937.00;;;7.50
69590;BMP180;56792;50.644;17.984;2024-03-02T05:18:10;98937.60;;;7.50
69590;BMP180;56792;50.644;17.984;2024-03-02T05:20:42;98936.20;;;7.40
69590;BMP180;56792;50.644;17.984;2024-03-02T05:23:13;98938.40;;;7.38
69590;BMP180;56792;50.644;17.984;2024-03-02T05:25:45;98941.20;;;7.30
69590;BMP180;56792;50.644;17.984;2024-03-02T05:28:17;98939.60;;;7.30
69590;BMP180;56792;50.644;17.984;2024-03-02T05:30:48;98939.40;;;7.20
69590;BMP180;56792;50.644;17.984;2024-03-02T05:33:20;98938.20;;;7.20
69590;BMP180;56792;50.644;17.984;2024-03-02T05:35:52;98944.40;;;7.10
69590;BMP180;56792;50.644;17.984;2024-03-02T05:38:24;98944.20;;;7.10
69590;BMP180;56792;50.644;17.984;2024-03-02T05:40:55;98948.20;;;7.10
69590;BMP180;56792;50.644;17.984;2024-03-02T05:43:27;98945.00;;;7.00
69590;BMP180;56792;50.644;17.984;2024-03-02T05:45:58;98948.40;;;7.00
69590;BMP180;56792;50.644;17.984;2024-03-02T05:48:30;98955.60;;;7.00
69590;BMP180;56792;50.644;17.984;2024-03-02T05:51:01;98956.40;;;7.00
69590;BMP180;56792;50.644;17.984;2024-03-02T05:53:33;98952.60;;;6.94
69590;BMP180;56792;50.644;17.984;2024-03-02T05:56:08;98962.00;;;7.00
69590;BMP180;56792;50.644;17.984;2024-03-02T05:58:40;98965.00;;;7.00
69590;BMP180;56792;50.644;17.984;2024-03-02T06:01:23;98969.60;;;6.90
69590;BMP180;56792;50.644;17.984;2024-03-02T06:03:58;98966.40;;;6.90
69590;BMP180;56792;50.644;17.984;2024-03-02T06:06:30;98972.60;;;6.90
69590;BMP180;56792;50.644;17.984;2024-03-02T06:09:03;98970.80;;;6.80
69590;BMP180;56792;50.644;17.984;2024-03-02T06:11:38;98972.20;;;6.90
69590;BMP180;56792;50.644;17.984;2024-03-02T06:14:10;98967.20;;;6.90
69590;BMP180;56792;50.644;17.984;2024-03-02T06:16:42;98970.00;;;6.90
69590;BMP180;56792;50.644;17.984;2024-03-02T06:19:13;98969.40;;;6.90
69590;BMP180;56792;50.644;17.984;2024-03-02T06:21:45;98974.20;;;6.90
69590;BMP180;56792;50.644;17.984;2024-03-02T06:24:16;98972.80;;;6.90
69590;BMP180;56792;50.644;17.984;2024-03-02T06:26:48;98975.40;;;7.00
69590;BMP180;56792;50.644;17.984;2024-03-02T06:29:20;98974.40;;;7.00
69590;BMP180;56792;50.644;17.984;2024-03-02T06:31:51;98971.00;;;7.10
69590;BMP180;56792;50.644;17.984;2024-03-02T06:34:23;98970.20;;;7.10
69590;BMP180;56792;50.644;17.984;2024-03-02T06:36:54;98978.00;;;7.20
69590;BMP180;56792;50.644;17.984;2024-03-02T06:39:26;98977.80;;;7.20
69590;BMP180;56792;50.644;17.984;2024-03-02T06:41:57;98979.80;;;7.30
69590;BMP180;56792;50.644;17.984;2024-03-02T06:44:29;98984.20;;;7.30
69590;BMP180;56792;50.644;17.984;2024-03-02T06:47:01;98988.20;;;7.30
69590;BMP180;56792;50.644;17.984;2024-03-02T06:49:32;98991.00;;;7.30
69590;BMP180;56792;50.644;17.984;2024-03-02T06:52:05;98993.60;;;7.38
69590;BMP180;56792;50.644;17.984;2024-03-02T06:54:38;98989.00;;;7.40
69590;BMP180;56792;50.644;17.984;2024-03-02T06:57:09;98986.80;;;7.40
69590;BMP180;56792;50.644;17.984;2024-03-02T06:59:41;98984.20;;;7.40
69590;BMP180;56792;50.644;17.984;2024-03-02T07:02:13;98989.00;;;7.44
69590;BMP180;56792;50.644;17.984;2024-03-02T07:04:44;98989.20;;;7.50
69590;BMP180;56792;50.644;17.984;2024-03-02T07:07:16;98997.40;;;7.50
69590;BMP180;56792;50.644;17.984;2024-03-02T07:09:48;99000.40;;;7.50
69590;BMP180;56792;50.644;17.984;2024-03-02T07:12:19;98999.00;;;7.56
69590;BMP180;56792;50.644;17.984;2024-03-02T07:14:51;99003.60;;;7.60
69590;BMP180;56792;50.644;17.984;2024-03-02T07:17:41;99008.20;;;7.60
69590;BMP180;56792;50.644;17.984;2024-03-02T07:20:14;99013.00;;;7.70
69590;BMP180;56792;50.644;17.984;2024-03-02T07:22:45;99008.80;;;7.70
69590;BMP180;56792;50.644;17.984;2024-03-02T07:25:17;99010.00;;;7.70
69590;BMP180;56792;50.644;17.984;2024-03-02T07:27:49;99010.80;;;7.80
69590;BMP180;56792;50.644;17.984;2024-03-02T07:30:20;99014.40;;;7.84
69590;BMP180;56792;50.644;17.984;2024-03-02T07:32:54;99016.20;;;7.90
69590;BMP180;56792;50.644;17.984;2024-03-02T07:35:26;99014.80;;;8.00
69590;BMP180;56792;50.644;17.984;2024-03-02T07:37:57;99014.00;;;8.00
69590;BMP180;56792;50.644;17.984;2024-03-02T07:40:29;99024.20;;;8.10
69590;BMP180;56792;50.644;17.984;2024-03-02T07:43:01;99031.60;;;8.10
69590;BMP180;56792;50.644;17.984;2024-03-02T07:45:33;99032.40;;;8.10
69590;BMP180;56792;50.644;17.984;2024-03-02T07:48:07;99032.80;;;8.20
69590;BMP180;56792;50.644;17.984;2024-03-02T07:50:39;99026.20;;;8.28
69590;BMP180;56792;50.644;17.984;2024-03-02T07:53:10;99027.00;;;8.30
69590;BMP180;56792;50.644;17.984;2024-03-02T07:55:42;99024.40;;;8.36
69590;BMP180;56792;50.644;17.984;2024-03-02T07:58:14;99020.80;;;8.40
69590;BMP180;56792;50.644;17.984;2024-03-02T08:00:46;99024.60;;;8.50
69590;BMP180;56792;50.644;17.984;2024-03-02T08:03:17;99022.40;;;8.50
69590;BMP180;56792;50.644;17.984;2024-03-02T08:05:49;99021.00;;;8.60
69590;BMP180;56792;50.644;17.984;2024-03-02T08:08:21;99021.00;;;8.70
69590;BMP180;56792;50.644;17.984;2024-03-02T08:10:52;99026.00;;;8.70
69590;BMP180;56792;50.644;17.984;2024-03-02T08:13:24;99024.60;;;8.80
69590;BMP180;56792;50.644;17.984;2024-03-02T08:15:56;99030.80;;;8.80
69590;BMP180;56792;50.644;17.984;2024-03-02T08:18:27;99025.20;;;8.80
69590;BMP180;56792;50.644;17.984;2024-03-02T08:20:59;99029.60;;;8.90
69590;BMP180;56792;50.644;17.984;2024-03-02T08:23:30;99030.80;;;9.00
69590;BMP180;56792;50.644;17.984;2024-03-02T08:26:02;99036.20;;;9.10
69590;BMP180;56792;50.644;17.984;2024-03-02T08:28:34;99036.20;;;9.10
69590;BMP180;56792;50.644;17.984;2024-03-02T08:31:07;99038.40;;;9.12
69590;BMP180;56792;50.644;17.984;2024-03-02T08:33:39;99040.80;;;9.20
69590;BMP180;56792;50.644;17.984;2024-03-02T08:36:11;99035.40;;;9.20
69590;BMP180;56792;50.644;17.984;2024-03-02T08:38:43;99034.40;;;9.28
69590;BMP180;56792;50.644;17.984;2024-03-02T08:41:15;99037.20;;;9.30
69590;BMP180;56792;50.644;17.984;2024-03-02T08:43:47;99035.00;;;9.40
69590;BMP180;56792;50.644;17.984;2024-03-02T08:46:18;99032.80;;;9.46
69590;BMP180;56792;50.644;17.984;2024-03-02T08:48:50;99035.60;;;9.50
69590;BMP180;56792;50.644;17.984;2024-03-02T08:51:21;99033.00;;;9.60
69590;BMP180;56792;50.644;17.984;2024-03-02T08:53:53;99034.20;;;9.72
69590;BMP180;56792;50.644;17.984;2024-03-02T08:56:25;99031.60;;;9.82
69590;BMP180;56792;50.644;17.984;2024-03-02T08:58:56;99031.20;;;9.90
69590;BMP180;56792;50.644;17.984;2024-03-02T09:01:28;99029.60;;;10.00
69590;BMP180;56792;50.644;17.984;2024-03-02T09:04:00;99029.80;;;10.10
69590;BMP180;56792;50.644;17.984;2024-03-02T09:06:31;99032.20;;;10.30
69590;BMP180;56792;50.644;17.984;2024-03-02T09:09:03;99033.20;;;10.40
69590;BMP180;56792;50.644;17.984;2024-03-02T09:11:34;99026.60;;;10.50
69590;BMP180;56792;50.644;17.984;2024-03-02T09:14:06;99024.60;;;10.58
69590;BMP180;56792;50.644;17.984;2024-03-02T09:16:38;99032.00;;;10.68
69590;BMP180;56792;50.644;17.984;2024-03-02T09:19:09;99029.80;;;10.74
69590;BMP180;56792;50.644;17.984;2024-03-02T09:21:43;99025.20;;;10.90
69590;BMP180;56792;50.644;17.984;2024-03-02T09:24:15;99030.80;;;11.00
69590;BMP180;56792;50.644;17.984;2024-03-02T09:26:46;99029.00;;;11.00
69590;BMP180;56792;50.644;17.984;2024-03-02T09:29:18;99031.80;;;11.16
69590;BMP180;56792;50.644;17.984;2024-03-02T09:31:50;99026.80;;;11.30
69590;BMP180;56792;50.644;17.984;2024-03-02T09:34:22;99025.20;;;11.50
69590;BMP180;56792;50.644;17.984;2024-03-02T09:36:54;99024.40;;;11.60
69590;BMP180;56792;50.644;17.984;2024-03-02T09:39:26;99019.80;;;11.60
69590;BMP180;56792;50.644;17.984;2024-03-02T09:41:58;99019.20;;;11.66
69590;BMP180;56792;50.644;17.984;2024-03-02T09:44:30;99021.60;;;11.90
69590;BMP180;56792;50.644;17.984;2024-03-02T09:47:02;99022.80;;;12.10
69590;BMP180;56792;50.644;17.984;2024-03-02T09:49:34;99023.00;;;12.20
69590;BMP180;56792;50.644;17.984;2024-03-02T09:52:06;99019.60;;;12.40
69590;BMP180;56792;50.644;17.984;2024-03-02T09:54:38;99019.80;;;12.52
69590;BMP180;56792;50.644;17.984;2024-03-02T09:57:10;99020.80;;;12.70
69590;BMP180;56792;50.644;17.984;2024-03-02T09:59:41;99021.00;;;12.78
69590;BMP180;56792;50.644;17.984;2024-03-02T10:02:13;99018.60;;;12.80
69590;BMP180;56792;50.644;17.984;2024-03-02T10:04:44;99012.00;;;12.90
69590;BMP180;56792;50.644;17.984;2024-03-02T10:07:18;99019.00;;;12.90
69590;BMP180;56792;50.644;17.984;2024-03-02T10:09:50;99015.80;;;12.90
69590;BMP180;56792;50.644;17.984;2024-03-02T10:12:23;99015.40;;;13.00
69590;BMP180;56792;50.644;17.984;2024-03-02T10:15:06;99016.80;;;12.90
69590;BMP180;56792;50.644;17.984;2024-03-02T10:17:39;99016.60;;;12.90
69590;BMP180;56792;50.644;17.984;2024-03-02T10:20:25;99016.60;;;12.90
69590;BMP180;56792;50.644;17.984;2024-03-02T10:23:11;99016.60;;;13.00
69590;BMP180;56792;50.644;17.984;2024-03-02T10:25:43;99017.20;;;13.00
69590;BMP180;56792;50.644;17.984;2024-03-02T10:28:16;99016.80;;;13.00
69590;BMP180;56792;50.644;17.984;2024-03-02T10:30:51;99015.00;;;13.00
69590;BMP180;56792;50.644;17.984;2024-03-02T10:33:22;99011.80;;;13.00
69590;BMP180;56792;50.644;17.984;2024-03-02T10:35:56;99010.00;;;13.00
69590;BMP180;56792;50.644;17.984;2024-03-02T10:38:28;99005.60;;;12.90
69590;BMP180;56792;50.644;17.984;2024-03-02T10:41:01;99008.40;;;12.90
69590;BMP180;56792;50.644;17.984;2024-03-02T10:43:34;99009.60;;;12.90
69590;BMP180;56792;50.644;17.984;2024-03-02T10:46:06;99014.20;;;12.90
69590;BMP180;56792;50.644;17.984;2024-03-02T10:48:41;99014.80;;;12.90
69590;BMP180;56792;50.644;17.984;2024-03-02T10:51:14;99014.20;;;12.90
69590;BMP180;56792;50.644;17.984;2024-03-02T10:53:46;99018.60;;;12.90
69590;BMP180;56792;50.644;17.984;2024-03-02T10:56:26;99019.00;;;12.90
69590;BMP180;56792;50.644;17.984;2024-03-02T10:59:11;99018.40;;;12.90
69590;BMP180;56792;50.644;17.984;2024-03-02T11:01:50;99020.80;;;12.90
69590;BMP180;56792;50.644;17.984;2024-03-02T11:04:23;99015.00;;;12.90
69590;BMP180;56792;50.644;17.984;2024-03-02T11:07:02;99014.20;;;12.94
69590;BMP180;56792;50.644;17.984;2024-03-02T11:09:37;99015.20;;;12.90
69590;BMP180;56792;50.644;17.984;2024-03-02T11:12:23;99017.00;;;12.90
69590;BMP180;56792;50.644;17.984;2024-03-02T11:14:56;99013.00;;;12.90
69590;BMP180;56792;50.644;17.984;2024-03-02T11:17:29;99017.80;;;12.90
69590;BMP180;56792;50.644;17.984;2024-03-02T11:20:01;99017.00;;;12.90
69590;BMP180;56792;50.644;17.984;2024-03-02T11:22:39;99016.20;;;12.90
69590;BMP180;56792;50.644;17.984;2024-03-02T11:25:26;99018.00;;;12.90
69590;BMP180;56792;50.644;17.984;2024-03-02T11:28:06;99014.00;;;12.90
69590;BMP180;56792;50.644;17.984;2024-03-02T11:30:55;99013.40;;;12.90
69590;BMP180;56792;50.644;17.984;2024-03-02T11:33:29;99013.60;;;13.00
69590;BMP180;56792;50.644;17.984;2024-03-02T11:36:02;99008.20;;;13.00
69590;BMP180;56792;50.644;17.984;2024-03-02T11:38:35;99004.80;;;12.96
69590;BMP180;56792;50.644;17.984;2024-03-02T11:41:09;99008.00;;;12.90
69590;BMP180;56792;50.644;17.984;2024-03-02T11:43:43;99004.60;;;13.00
69590;BMP180;56792;50.644;17.984;2024-03-02T11:46:16;99001.00;;;13.00
69590;BMP180;56792;50.644;17.984;2024-03-02T11:48:49;99006.80;;;13.00
69590;BMP180;56792;50.644;17.984;2024-03-02T11:51:20;99006.40;;;13.00
69590;BMP180;56792;50.644;17.984;2024-03-02T11:53:55;99006.00;;;13.00
69590;BMP180;56792;50.644;17.984;2024-03-02T11:56:30;99002.80;;;13.00
69590;BMP180;56792;50.644;17.984;2024-03-02T11:59:04;99004.40;;;13.00
69590;BMP180;56792;50.644;17.984;2024-03-02T12:01:37;99000.00;;;13.00
69590;BMP180;56792;50.644;17.984;2024-03-02T12:04:09;99004.60;;;13.02
69590;BMP180;56792;50.644;17.984;2024-03-02T12:06:42;99007.20;;;13.10
69590;BMP180;56792;50.644;17.984;2024-03-02T12:09:14;99008.20;;;13.10
69590;BMP180;56792;50.644;17.984;2024-03-02T12:11:45;99006.20;;;13.20
69590;BMP180;56792;50.644;17.984;2024-03-02T12:14:17;99002.00;;;13.30
69590;BMP180;56792;50.644;17.984;2024-03-02T12:16:48;99005.80;;;13.40
69590;BMP180;56792;50.644;17.984;2024-03-02T12:19:20;99004.80;;;13.40
69590;BMP180;56792;50.644;17.984;2024-03-02T12:21:52;99005.40;;;13.50
69590;BMP180;56792;50.644;17.984;2024-03-02T12:24:26;99004.80;;;13.50
69590;BMP180;56792;50.644;17.984;2024-03-02T12:26:58;98996.60;;;13.50
69590;BMP180;56792;50.644;17.984;2024-03-02T12:29:30;99000.20;;;13.50
69590;BMP180;56792;50.644;17.984;2024-03-02T12:32:02;99001.20;;;13.48
69590;BMP180;56792;50.644;17.984;2024-03-02T12:34:34;98992.00;;;13.40
69590;BMP180;56792;50.644;17.984;2024-03-02T12:37:06;98994.80;;;13.42
69590;BMP180;56792;50.644;17.984;2024-03-02T12:39:37;98996.20;;;13.50
69590;BMP180;56792;50.644;17.984;2024-03-02T12:42:09;98999.60;;;13.50
69590;BMP180;56792;50.644;17.984;2024-03-02T12:44:41;98996.40;;;13.50
69590;BMP180;56792;50.644;17.984;2024-03-02T12:47:13;98998.80;;;13.50
69590;BMP180;56792;50.644;17.984;2024-03-02T12:49:45;98990.00;;;13.50
69590;BMP180;56792;50.644;17.984;2024-03-02T12:52:17;98993.00;;;13.50
69590;BMP180;56792;50.644;17.984;2024-03-02T12:54:48;98994.20;;;13.50
69590;BMP180;56792;50.644;17.984;2024-03-02T12:57:21;98994.60;;;13.40
69590;BMP180;56792;50.644;17.984;2024-03-02T12:59:54;98992.00;;;13.40
69590;BMP180;56792;50.644;17.984;2024-03-02T13:02:30;98996.20;;;13.40
69590;BMP180;56792;50.644;17.984;2024-03-02T13:05:02;98996.00;;;13.50
69590;BMP180;56792;50.644;17.984;2024-03-02T13:07:34;98995.60;;;13.50
69590;BMP180;56792;50.644;17.984;2024-03-02T13:10:32;98996.80;;;13.50
69590;BMP180;56792;50.644;17.984;2024-03-02T13:13:04;98993.00;;;13.50
69590;BMP180;56792;50.644;17.984;2024-03-02T13:15:37;98993.00;;;13.50
69590;BMP180;56792;50.644;17.984;2024-03-02T13:18:10;98991.00;;;13.50
69590;BMP180;56792;50.644;17.984;2024-03-02T13:20:42;98989.00;;;13.50
69590;BMP180;56792;50.644;17.984;2024-03-02T13:23:13;98981.40;;;13.40
69590;BMP180;56792;50.644;17.984;2024-03-02T13:25:45;98989.80;;;13.50
69590;BMP180;56792;50.644;17.984;2024-03-02T13:28:17;98987.60;;;13.44
69590;BMP180;56792;50.644;17.984;2024-03-02T13:30:49;98984.00;;;13.50
69590;BMP180;56792;50.644;17.984;2024-03-02T13:33:20;98985.60;;;13.50
69590;BMP180;56792;50.644;17.984;2024-03-02T13:35:53;98985.20;;;13.50
69590;BMP180;56792;50.644;17.984;2024-03-02T13:38:24;98988.20;;;13.50
69590;BMP180;56792;50.644;17.984;2024-03-02T13:40:56;98987.40;;;13.50
69590;BMP180;56792;50.644;17.984;2024-03-02T13:43:27;98984.20;;;13.50
69590;BMP180;56792;50.644;17.984;2024-03-02T13:46:02;98988.00;;;13.50
69590;BMP180;56792;50.644;17.984;2024-03-02T13:48:33;98991.00;;;13.50
69590;BMP180;56792;50.644;17.984;2024-03-02T13:51:05;98987.80;;;13.50
69590;BMP180;56792;50.644;17.984;2024-03-02T13:53:37;98992.80;;;13.60
69590;BMP180;56792;50.644;17.984;2024-03-02T13:56:10;98996.20;;;13.56
69590;BMP180;56792;50.644;17.984;2024-03-02T13:58:43;98999.40;;;13.50
69590;BMP180;56792;50.644;17.984;2024-03-02T14:01:16;98996.80;;;13.50
69590;BMP180;56792;50.644;17.984;2024-03-02T14:03:47;98998.80;;;13.50
69590;BMP180;56792;50.644;17.984;2024-03-02T14:06:19;98994.00;;;13.40
69590;BMP180;56792;50.644;17.984;2024-03-02T14:08:51;98998.20;;;13.40
69590;BMP180;56792;50.644;17.984;2024-03-02T14:11:22;98997.20;;;13.30
69590;BMP180;56792;50.644;17.984;2024-03-02T14:13:53;99001.60;;;13.32
69590;BMP180;56792;50.644;17.984;2024-03-02T14:16:27;99002.60;;;13.30
69590;BMP180;56792;50.644;17.984;2024-03-02T14:18:59;99001.00;;;13.30
69590;BMP180;56792;50.644;17.984;2024-03-02T14:21:30;99000.80;;;13.30
69590;BMP180;56792;50.644;17.984;2024-03-02T14:24:02;98999.00;;;13.30
69590;BMP180;56792;50.644;17.984;2024-03-02T14:26:33;98998.40;;;13.30
69590;BMP180;56792;50.644;17.984;2024-03-02T14:29:06;98999.40;;;13.20
69590;BMP180;56792;50.644;17.984;2024-03-02T14:31:38;99008.80;;;13.18
69590;BMP180;56792;50.644;17.984;2024-03-02T14:34:09;99009.40;;;13.10